4P5 weather

Franks Seaplane Base
Lac Du Flambeau, Wisconsin, United States

Public forecast

Using degrees Fahrenheit for public forecast. Weather courtesy of forecast.io.

Closest aviation weather report (METAR) to Franks Seaplane Base

Closest report is Lakeland-Noble F. Lee Memorial field, 11.6 nm (21.4 km) ENE. Retrieved 2019/10/17 17:35 UTC (4 minutes ago):

KARV 171735Z AUTO 31003KT 10SM OVC026 07/03 A3001 RMK AO2 T00730027

Closest aviation forecast (TAF) to Franks Seaplane Base

Closest forecast is Rhinelander Oneida County Airport, 27.0 nm (49.9 km) SE. Retrieved 2019/10/17 12:30 UTC (5 hours ago):

TAF KRHI 171127Z 1712/1812 VRB03KT P6SM OVC025 FM171400 35003KT P6SM BKN030 FM171800 36002KT P6SM SCT030 FM180000 VRB03KT P6SM SKC